sensor_id;sensor_type;location;lat;lon;timestamp;P1;durP1;ratioP1;P2;durP2;ratioP2
48727;SDS011;34527;45.618;5.130;2023-07-24T00:00:20;9.55;;;5.47;;
48727;SDS011;34527;45.618;5.130;2023-07-24T00:02:46;7.45;;;5.10;;
48727;SDS011;34527;45.618;5.130;2023-07-24T00:05:11;9.93;;;5.22;;
48727;SDS011;34527;45.618;5.130;2023-07-24T00:07:37;10.65;;;5.82;;
48727;SDS011;34527;45.618;5.130;2023-07-24T00:10:03;7.70;;;5.50;;
48727;SDS011;34527;45.618;5.130;2023-07-24T00:12:29;9.68;;;5.70;;
48727;SDS011;34527;45.618;5.130;2023-07-24T00:14:55;9.00;;;5.47;;
48727;SDS011;34527;45.618;5.130;2023-07-24T00:17:20;11.48;;;5.60;;
48727;SDS011;34527;45.618;5.130;2023-07-24T00:19:46;9.75;;;5.07;;
48727;SDS011;34527;45.618;5.130;2023-07-24T00:22:14;10.15;;;5.43;;
48727;SDS011;34527;45.618;5.130;2023-07-24T00:24:40;7.70;;;5.15;;
48727;SDS011;34527;45.618;5.130;2023-07-24T00:27:05;7.28;;;5.38;;
48727;SDS011;34527;45.618;5.130;2023-07-24T00:29:31;10.73;;;5.30;;
48727;SDS011;34527;45.618;5.130;2023-07-24T00:31:57;9.63;;;6.10;;
48727;SDS011;34527;45.618;5.130;2023-07-24T00:34:22;8.93;;;5.30;;
48727;SDS011;34527;45.618;5.130;2023-07-24T00:36:48;7.70;;;5.53;;
48727;SDS011;34527;45.618;5.130;2023-07-24T00:39:14;9.68;;;5.88;;
48727;SDS011;34527;45.618;5.130;2023-07-24T00:41:39;11.05;;;5.05;;
48727;SDS011;34527;45.618;5.130;2023-07-24T00:44:05;9.75;;;5.47;;
48727;SDS011;34527;45.618;5.130;2023-07-24T00:46:31;8.70;;;5.43;;
48727;SDS011;34527;45.618;5.130;2023-07-24T00:48:58;8.00;;;5.03;;
48727;SDS011;34527;45.618;5.130;2023-07-24T00:51:26;9.65;;;5.45;;
48727;SDS011;34527;45.618;5.130;2023-07-24T00:53:55;6.85;;;5.47;;
48727;SDS011;34527;45.618;5.130;2023-07-24T00:56:25;8.38;;;5.25;;
48727;SDS011;34527;45.618;5.130;2023-07-24T00:58:51;11.02;;;5.28;;
48727;SDS011;34527;45.618;5.130;2023-07-24T01:01:20;7.38;;;5.40;;
48727;SDS011;34527;45.618;5.130;2023-07-24T01:03:47;9.88;;;5.10;;
48727;SDS011;34527;45.618;5.130;2023-07-24T01:06:13;8.20;;;5.90;;
48727;SDS011;34527;45.618;5.130;2023-07-24T01:08:38;9.25;;;5.47;;
48727;SDS011;34527;45.618;5.130;2023-07-24T01:11:14;8.85;;;5.20;;
48727;SDS011;34527;45.618;5.130;2023-07-24T01:13:44;11.50;;;5.60;;
48727;SDS011;34527;45.618;5.130;2023-07-24T01:16:21;9.38;;;5.22;;
48727;SDS011;34527;45.618;5.130;2023-07-24T01:18:47;8.65;;;5.43;;
48727;SDS011;34527;45.618;5.130;2023-07-24T01:21:16;7.32;;;5.25;;
48727;SDS011;34527;45.618;5.130;2023-07-24T01:26:23;18.08;;;5.70;;
48727;SDS011;34527;45.618;5.130;2023-07-24T01:28:49;12.02;;;5.85;;
48727;SDS011;34527;45.618;5.130;2023-07-24T01:31:14;9.02;;;5.78;;
48727;SDS011;34527;45.618;5.130;2023-07-24T01:33:41;17.15;;;6.32;;
48727;SDS011;34527;45.618;5.130;2023-07-24T01:36:07;11.82;;;6.38;;
48727;SDS011;34527;45.618;5.130;2023-07-24T01:38:34;14.32;;;6.63;;
48727;SDS011;34527;45.618;5.130;2023-07-24T01:41:02;15.02;;;7.28;;
48727;SDS011;34527;45.618;5.130;2023-07-24T01:43:28;12.77;;;7.18;;
48727;SDS011;34527;45.618;5.130;2023-07-24T01:45:55;12.73;;;6.65;;
48727;SDS011;34527;45.618;5.130;2023-07-24T01:48:21;13.13;;;6.90;;
48727;SDS011;34527;45.618;5.130;2023-07-24T01:50:46;10.05;;;6.32;;
48727;SDS011;34527;45.618;5.130;2023-07-24T01:53:12;12.90;;;7.20;;
48727;SDS011;34527;45.618;5.130;2023-07-24T01:55:38;11.77;;;6.53;;
48727;SDS011;34527;45.618;5.130;2023-07-24T01:58:04;14.25;;;6.95;;
48727;SDS011;34527;45.618;5.130;2023-07-24T02:00:29;16.70;;;8.02;;
48727;SDS011;34527;45.618;5.130;2023-07-24T02:02:55;11.80;;;6.78;;
48727;SDS011;34527;45.618;5.130;2023-07-24T02:05:22;9.27;;;6.38;;
48727;SDS011;34527;45.618;5.130;2023-07-24T02:07:48;13.10;;;6.80;;
48727;SDS011;34527;45.618;5.130;2023-07-24T02:10:13;9.90;;;6.10;;
48727;SDS011;34527;45.618;5.130;2023-07-24T02:12:39;10.85;;;6.22;;
48727;SDS011;34527;45.618;5.130;2023-07-24T02:15:05;12.70;;;6.43;;
48727;SDS011;34527;45.618;5.130;2023-07-24T02:17:31;9.65;;;6.15;;
48727;SDS011;34527;45.618;5.130;2023-07-24T02:19:58;10.68;;;6.57;;
48727;SDS011;34527;45.618;5.130;2023-07-24T02:22:24;11.68;;;6.68;;
48727;SDS011;34527;45.618;5.130;2023-07-24T02:24:49;8.75;;;6.40;;
48727;SDS011;34527;45.618;5.130;2023-07-24T02:27:29;10.18;;;6.70;;
48727;SDS011;34527;45.618;5.130;2023-07-24T02:29:59;11.52;;;7.00;;
48727;SDS011;34527;45.618;5.130;2023-07-24T02:32:25;12.93;;;7.30;;
48727;SDS011;34527;45.618;5.130;2023-07-24T02:34:51;10.98;;;6.80;;
48727;SDS011;34527;45.618;5.130;2023-07-24T02:37:17;10.75;;;7.30;;
48727;SDS011;34527;45.618;5.130;2023-07-24T02:39:44;12.80;;;7.00;;
48727;SDS011;34527;45.618;5.130;2023-07-24T02:42:09;11.10;;;7.07;;
48727;SDS011;34527;45.618;5.130;2023-07-24T02:44:35;9.98;;;7.72;;
48727;SDS011;34527;45.618;5.130;2023-07-24T02:47:01;14.50;;;7.65;;
48727;SDS011;34527;45.618;5.130;2023-07-24T02:49:27;14.45;;;8.05;;
48727;SDS011;34527;45.618;5.130;2023-07-24T02:51:53;12.00;;;7.65;;
48727;SDS011;34527;45.618;5.130;2023-07-24T02:54:19;11.38;;;7.68;;
48727;SDS011;34527;45.618;5.130;2023-07-24T02:56:44;13.57;;;7.78;;
48727;SDS011;34527;45.618;5.130;2023-07-24T02:59:10;12.05;;;7.43;;
48727;SDS011;34527;45.618;5.130;2023-07-24T03:01:36;14.52;;;7.22;;
48727;SDS011;34527;45.618;5.130;2023-07-24T03:04:01;11.40;;;7.90;;
48727;SDS011;34527;45.618;5.130;2023-07-24T03:06:27;12.02;;;7.60;;
48727;SDS011;34527;45.618;5.130;2023-07-24T03:08:53;13.77;;;8.00;;
48727;SDS011;34527;45.618;5.130;2023-07-24T03:11:19;14.50;;;8.40;;
48727;SDS011;34527;45.618;5.130;2023-07-24T03:13:44;12.07;;;8.50;;
48727;SDS011;34527;45.618;5.130;2023-07-24T03:16:10;10.88;;;8.15;;
48727;SDS011;34527;45.618;5.130;2023-07-24T03:18:36;12.20;;;7.85;;
48727;SDS011;34527;45.618;5.130;2023-07-24T03:21:02;15.52;;;8.40;;
48727;SDS011;34527;45.618;5.130;2023-07-24T03:23:28;15.50;;;8.95;;
48727;SDS011;34527;45.618;5.130;2023-07-24T03:25:54;12.88;;;9.02;;
48727;SDS011;34527;45.618;5.130;2023-07-24T03:28:19;13.55;;;8.48;;
48727;SDS011;34527;45.618;5.130;2023-07-24T03:30:45;13.23;;;8.90;;
48727;SDS011;34527;45.618;5.130;2023-07-24T03:33:11;11.43;;;8.23;;
48727;SDS011;34527;45.618;5.130;2023-07-24T03:35:37;13.27;;;9.13;;
48727;SDS011;34527;45.618;5.130;2023-07-24T03:38:04;12.25;;;9.27;;
48727;SDS011;34527;45.618;5.130;2023-07-24T03:40:30;14.93;;;9.45;;
48727;SDS011;34527;45.618;5.130;2023-07-24T03:42:55;13.85;;;9.02;;
48727;SDS011;34527;45.618;5.130;2023-07-24T03:45:21;15.05;;;9.00;;
48727;SDS011;34527;45.618;5.130;2023-07-24T03:47:47;15.77;;;9.32;;
48727;SDS011;34527;45.618;5.130;2023-07-24T03:50:12;14.73;;;8.65;;
48727;SDS011;34527;45.618;5.130;2023-07-24T03:52:38;16.38;;;9.07;;
48727;SDS011;34527;45.618;5.130;2023-07-24T03:55:04;12.77;;;8.80;;
48727;SDS011;34527;45.618;5.130;2023-07-24T03:57:30;14.10;;;9.20;;
48727;SDS011;34527;45.618;5.130;2023-07-24T03:59:55;14.65;;;9.05;;
48727;SDS011;34527;45.618;5.130;2023-07-24T04:02:21;13.75;;;9.15;;
48727;SDS011;34527;45.618;5.130;2023-07-24T04:04:47;12.88;;;9.80;;
48727;SDS011;34527;45.618;5.130;2023-07-24T04:07:13;11.55;;;9.05;;
48727;SDS011;34527;45.618;5.130;2023-07-24T04:09:38;14.40;;;8.95;;
48727;SDS011;34527;45.618;5.130;2023-07-24T04:12:04;13.00;;;9.23;;
48727;SDS011;34527;45.618;5.130;2023-07-24T04:14:30;16.98;;;9.88;;
48727;SDS011;34527;45.618;5.130;2023-07-24T04:16:55;16.88;;;10.23;;
48727;SDS011;34527;45.618;5.130;2023-07-24T04:19:21;15.35;;;9.80;;
48727;SDS011;34527;45.618;5.130;2023-07-24T04:21:46;16.13;;;10.45;;
48727;SDS011;34527;45.618;5.130;2023-07-24T04:24:12;14.38;;;10.25;;
48727;SDS011;34527;45.618;5.130;2023-07-24T04:26:38;12.82;;;10.07;;
48727;SDS011;34527;45.618;5.130;2023-07-24T04:29:04;12.85;;;10.07;;
48727;SDS011;34527;45.618;5.130;2023-07-24T04:31:31;17.35;;;10.60;;
48727;SDS011;34527;45.618;5.130;2023-07-24T04:33:56;15.15;;;10.55;;
48727;SDS011;34527;45.618;5.130;2023-07-24T04:36:22;13.30;;;10.00;;
48727;SDS011;34527;45.618;5.130;2023-07-24T04:38:47;15.63;;;10.55;;
48727;SDS011;34527;45.618;5.130;2023-07-24T04:41:13;14.35;;;9.77;;
48727;SDS011;34527;45.618;5.130;2023-07-24T04:43:39;13.95;;;10.52;;
48727;SDS011;34527;45.618;5.130;2023-07-24T04:46:04;12.07;;;9.80;;
48727;SDS011;34527;45.618;5.130;2023-07-24T04:48:30;14.48;;;9.73;;
48727;SDS011;34527;45.618;5.130;2023-07-24T04:50:56;12.35;;;8.88;;
48727;SDS011;34527;45.618;5.130;2023-07-24T04:53:22;12.52;;;8.85;;
48727;SDS011;34527;45.618;5.130;2023-07-24T04:55:48;11.80;;;8.77;;
48727;SDS011;34527;45.618;5.130;2023-07-24T04:58:13;11.85;;;9.02;;
48727;SDS011;34527;45.618;5.130;2023-07-24T05:00:39;10.68;;;8.93;;
48727;SDS011;34527;45.618;5.130;2023-07-24T05:03:05;13.32;;;8.30;;
48727;SDS011;34527;45.618;5.130;2023-07-24T05:05:33;12.65;;;8.93;;
48727;SDS011;34527;45.618;5.130;2023-07-24T05:07:58;14.70;;;9.57;;
48727;SDS011;34527;45.618;5.130;2023-07-24T05:10:24;13.68;;;9.20;;
48727;SDS011;34527;45.618;5.130;2023-07-24T05:12:50;14.52;;;9.55;;
48727;SDS011;34527;45.618;5.130;2023-07-24T05:15:15;12.82;;;10.13;;
48727;SDS011;34527;45.618;5.130;2023-07-24T05:17:42;14.32;;;9.75;;
48727;SDS011;34527;45.618;5.130;2023-07-24T05:20:10;12.63;;;9.85;;
48727;SDS011;34527;45.618;5.130;2023-07-24T05:22:36;12.30;;;9.45;;
48727;SDS011;34527;45.618;5.130;2023-07-24T05:25:02;15.15;;;10.05;;
48727;SDS011;34527;45.618;5.130;2023-07-24T05:27:27;13.80;;;9.70;;
48727;SDS011;34527;45.618;5.130;2023-07-24T05:29:54;11.18;;;9.38;;
48727;SDS011;34527;45.618;5.130;2023-07-24T05:32:20;14.85;;;9.38;;
48727;SDS011;34527;45.618;5.130;2023-07-24T05:34:46;14.57;;;9.50;;
48727;SDS011;34527;45.618;5.130;2023-07-24T05:37:11;13.77;;;9.63;;
48727;SDS011;34527;45.618;5.130;2023-07-24T05:39:37;10.30;;;9.10;;
48727;SDS011;34527;45.618;5.130;2023-07-24T05:42:02;14.52;;;10.18;;
48727;SDS011;34527;45.618;5.130;2023-07-24T05:44:28;12.07;;;9.63;;
48727;SDS011;34527;45.618;5.130;2023-07-24T05:46:54;13.88;;;9.40;;
48727;SDS011;34527;45.618;5.130;2023-07-24T05:49:19;16.25;;;8.75;;
48727;SDS011;34527;45.618;5.130;2023-07-24T05:51:45;9.65;;;8.23;;
48727;SDS011;34527;45.618;5.130;2023-07-24T05:54:11;11.80;;;8.60;;
48727;SDS011;34527;45.618;5.130;2023-07-24T05:56:36;13.40;;;8.32;;
48727;SDS011;34527;45.618;5.130;2023-07-24T05:59:02;13.18;;;8.23;;
48727;SDS011;34527;45.618;5.130;2023-07-24T06:01:27;12.02;;;8.20;;
48727;SDS011;34527;45.618;5.130;2023-07-24T06:03:53;10.20;;;7.88;;
48727;SDS011;34527;45.618;5.130;2023-07-24T06:06:18;11.15;;;7.93;;
48727;SDS011;34527;45.618;5.130;2023-07-24T06:08:44;10.82;;;7.75;;
48727;SDS011;34527;45.618;5.130;2023-07-24T06:11:12;13.57;;;8.20;;
48727;SDS011;34527;45.618;5.130;2023-07-24T06:13:37;10.45;;;7.20;;
48727;SDS011;34527;45.618;5.130;2023-07-24T06:16:03;10.68;;;7.82;;
48727;SDS011;34527;45.618;5.130;2023-07-24T06:18:29;12.27;;;7.63;;
48727;SDS011;34527;45.618;5.130;2023-07-24T06:20:54;8.30;;;7.30;;
48727;SDS011;34527;45.618;5.130;2023-07-24T06:23:20;11.55;;;7.57;;
48727;SDS011;34527;45.618;5.130;2023-07-24T06:25:46;11.27;;;7.53;;
48727;SDS011;34527;45.618;5.130;2023-07-24T06:28:11;11.50;;;7.80;;
48727;SDS011;34527;45.618;5.130;2023-07-24T06:30:38;10.20;;;7.68;;
48727;SDS011;34527;45.618;5.130;2023-07-24T06:33:04;12.25;;;8.25;;
48727;SDS011;34527;45.618;5.130;2023-07-24T06:35:29;11.63;;;8.50;;
48727;SDS011;34527;45.618;5.130;2023-07-24T06:37:55;13.52;;;8.55;;
48727;SDS011;34527;45.618;5.130;2023-07-24T06:40:20;11.30;;;8.15;;
48727;SDS011;34527;45.618;5.130;2023-07-24T06:42:46;13.20;;;8.35;;
48727;SDS011;34527;45.618;5.130;2023-07-24T06:45:12;11.90;;;8.23;;
48727;SDS011;34527;45.618;5.130;2023-07-24T06:47:37;9.05;;;7.78;;
48727;SDS011;34527;45.618;5.130;2023-07-24T06:50:03;12.88;;;8.40;;
48727;SDS011;34527;45.618;5.130;2023-07-24T06:52:29;10.50;;;7.80;;
48727;SDS011;34527;45.618;5.130;2023-07-24T06:54:56;10.98;;;8.75;;
48727;SDS011;34527;45.618;5.130;2023-07-24T06:57:23;15.77;;;8.93;;
48727;SDS011;34527;45.618;5.130;2023-07-24T06:59:49;12.55;;;8.75;;
48727;SDS011;34527;45.618;5.130;2023-07-24T07:02:14;12.27;;;8.57;;
48727;SDS011;34527;45.618;5.130;2023-07-24T07:04:40;14.07;;;8.50;;
48727;SDS011;34527;45.618;5.130;2023-07-24T07:07:05;15.02;;;9.15;;
48727;SDS011;34527;45.618;5.130;2023-07-24T07:09:31;12.60;;;9.15;;
48727;SDS011;34527;45.618;5.130;2023-07-24T07:11:57;10.82;;;8.95;;
48727;SDS011;34527;45.618;5.130;2023-07-24T07:14:22;13.07;;;8.02;;
48727;SDS011;34527;45.618;5.130;2023-07-24T07:16:48;12.48;;;8.20;;
48727;SDS011;34527;45.618;5.130;2023-07-24T07:19:14;10.82;;;8.30;;
48727;SDS011;34527;45.618;5.130;2023-07-24T07:21:39;9.63;;;8.07;;
48727;SDS011;34527;45.618;5.130;2023-07-24T07:24:05;12.88;;;8.20;;
48727;SDS011;34527;45.618;5.130;2023-07-24T07:26:31;11.05;;;8.05;;
48727;SDS011;34527;45.618;5.130;2023-07-24T07:28:56;10.70;;;8.52;;
48727;SDS011;34527;45.618;5.130;2023-07-24T07:31:22;10.73;;;8.23;;
48727;SDS011;34527;45.618;5.130;2023-07-24T07:33:47;12.00;;;8.70;;
48727;SDS011;34527;45.618;5.130;2023-07-24T07:36:13;10.57;;;7.97;;
48727;SDS011;34527;45.618;5.130;2023-07-24T07:38:39;10.00;;;8.60;;
48727;SDS011;34527;45.618;5.130;2023-07-24T07:41:05;11.63;;;8.65;;
48727;SDS011;34527;45.618;5.130;2023-07-24T07:43:31;11.63;;;9.15;;
48727;SDS011;34527;45.618;5.130;2023-07-24T07:45:56;15.48;;;9.90;;
48727;SDS011;34527;45.618;5.130;2023-07-24T07:48:23;12.05;;;10.35;;
48727;SDS011;34527;45.618;5.130;2023-07-24T07:50:52;13.85;;;9.93;;
48727;SDS011;34527;45.618;5.130;2023-07-24T07:53:17;12.57;;;10.35;;
48727;SDS011;34527;45.618;5.130;2023-07-24T07:55:43;13.95;;;10.07;;
48727;SDS011;34527;45.618;5.130;2023-07-24T07:58:09;13.38;;;9.68;;
48727;SDS011;34527;45.618;5.130;2023-07-24T08:00:34;12.55;;;9.57;;
48727;SDS011;34527;45.618;5.130;2023-07-24T08:03:00;13.23;;;10.27;;
48727;SDS011;34527;45.618;5.130;2023-07-24T08:05:25;11.65;;;9.57;;
48727;SDS011;34527;45.618;5.130;2023-07-24T08:07:51;12.85;;;10.63;;
48727;SDS011;34527;45.618;5.130;2023-07-24T08:10:17;11.05;;;8.85;;
48727;SDS011;34527;45.618;5.130;2023-07-24T08:12:43;11.10;;;8.70;;
48727;SDS011;34527;45.618;5.130;2023-07-24T08:15:09;12.07;;;9.05;;
48727;SDS011;34527;45.618;5.130;2023-07-24T08:17:35;13.00;;;9.45;;
48727;SDS011;34527;45.618;5.130;2023-07-24T08:20:00;10.32;;;8.88;;
48727;SDS011;34527;45.618;5.130;2023-07-24T08:22:26;14.40;;;9.50;;
48727;SDS011;34527;45.618;5.130;2023-07-24T08:24:52;10.30;;;9.27;;
48727;SDS011;34527;45.618;5.130;2023-07-24T08:27:17;11.50;;;9.40;;
48727;SDS011;34527;45.618;5.130;2023-07-24T08:29:43;13.63;;;9.88;;
48727;SDS011;34527;45.618;5.130;2023-07-24T08:32:09;13.18;;;10.30;;
48727;SDS011;34527;45.618;5.130;2023-07-24T08:34:34;11.70;;;9.13;;
48727;SDS011;34527;45.618;5.130;2023-07-24T08:37:00;12.20;;;10.45;;
48727;SDS011;34527;45.618;5.130;2023-07-24T08:39:25;15.05;;;9.50;;
48727;SDS011;34527;45.618;5.130;2023-07-24T08:41:51;14.35;;;9.80;;
48727;SDS011;34527;45.618;5.130;2023-07-24T08:44:17;12.35;;;9.73;;
48727;SDS011;34527;45.618;5.130;2023-07-24T08:46:43;25.42;;;17.85;;
48727;SDS011;34527;45.618;5.130;2023-07-24T08:49:14;18.67;;;12.63;;
48727;SDS011;34527;45.618;5.130;2023-07-24T08:51:40;17.60;;;11.02;;
48727;SDS011;34527;45.618;5.130;2023-07-24T08:54:06;14.05;;;10.77;;
48727;SDS011;34527;45.618;5.130;2023-07-24T08:56:32;16.77;;;11.88;;
48727;SDS011;34527;45.618;5.130;2023-07-24T08:58:58;17.70;;;12.30;;
48727;SDS011;34527;45.618;5.130;2023-07-24T09:01:24;18.45;;;11.90;;
48727;SDS011;34527;45.618;5.130;2023-07-24T09:03:50;17.98;;;11.80;;
48727;SDS011;34527;45.618;5.130;2023-07-24T09:06:16;16.73;;;12.25;;
48727;SDS011;34527;45.618;5.130;2023-07-24T09:08:42;18.17;;;11.07;;
48727;SDS011;34527;45.618;5.130;2023-07-24T09:11:09;14.88;;;10.38;;
48727;SDS011;34527;45.618;5.130;2023-07-24T09:13:40;16.88;;;9.95;;
48727;SDS011;34527;45.618;5.130;2023-07-24T09:16:07;12.82;;;8.93;;
48727;SDS011;34527;45.618;5.130;2023-07-24T09:18:42;17.13;;;10.15;;
48727;SDS011;34527;45.618;5.130;2023-07-24T09:21:08;16.60;;;10.65;;
48727;SDS011;34527;45.618;5.130;2023-07-24T09:23:37;10.82;;;9.07;;
48727;SDS011;34527;45.618;5.130;2023-07-24T09:26:06;13.63;;;9.32;;
48727;SDS011;34527;45.618;5.130;2023-07-24T09:28:32;14.07;;;9.65;;
48727;SDS011;34527;45.618;5.130;2023-07-24T09:30:59;14.73;;;9.93;;
48727;SDS011;34527;45.618;5.130;2023-07-24T09:33:39;11.63;;;9.05;;
48727;SDS011;34527;45.618;5.130;2023-07-24T09:36:06;14.80;;;9.60;;
48727;SDS011;34527;45.618;5.130;2023-07-24T09:38:33;11.55;;;8.93;;
48727;SDS011;34527;45.618;5.130;2023-07-24T09:41:00;12.02;;;9.18;;
48727;SDS011;34527;45.618;5.130;2023-07-24T09:43:28;10.77;;;8.40;;
48727;SDS011;34527;45.618;5.130;2023-07-24T09:45:54;15.60;;;10.13;;
48727;SDS011;34527;45.618;5.130;2023-07-24T09:48:22;13.35;;;9.20;;
48727;SDS011;34527;45.618;5.130;2023-07-24T09:50:51;12.88;;;9.65;;
48727;SDS011;34527;45.618;5.130;2023-07-24T09:53:22;11.48;;;9.20;;
48727;SDS011;34527;45.618;5.130;2023-07-24T09:55:51;13.10;;;9.52;;
48727;SDS011;34527;45.618;5.130;2023-07-24T09:58:25;13.10;;;9.57;;
48727;SDS011;34527;45.618;5.130;2023-07-24T10:00:51;15.30;;;9.45;;
48727;SDS011;34527;45.618;5.130;2023-07-24T10:03:18;11.43;;;9.00;;
48727;SDS011;34527;45.618;5.130;2023-07-24T10:05:46;12.52;;;9.25;;
48727;SDS011;34527;45.618;5.130;2023-07-24T10:08:12;15.07;;;8.90;;
48727;SDS011;34527;45.618;5.130;2023-07-24T10:10:39;11.63;;;8.88;;
48727;SDS011;34527;45.618;5.130;2023-07-24T10:13:05;12.70;;;9.07;;
48727;SDS011;34527;45.618;5.130;2023-07-24T10:15:32;13.15;;;9.63;;
48727;SDS011;34527;45.618;5.130;2023-07-24T10:18:04;15.25;;;8.85;;
48727;SDS011;34527;45.618;5.130;2023-07-24T10:23:02;11.10;;;8.55;;
48727;SDS011;34527;45.618;5.130;2023-07-24T10:25:29;11.57;;;8.70;;
48727;SDS011;34527;45.618;5.130;2023-07-24T10:28:05;11.70;;;8.35;;
48727;SDS011;34527;45.618;5.130;2023-07-24T10:30:35;10.57;;;8.50;;
48727;SDS011;34527;45.618;5.130;2023-07-24T10:35:38;12.13;;;9.18;;
48727;SDS011;34527;45.618;5.130;2023-07-24T10:38:04;10.95;;;8.55;;
48727;SDS011;34527;45.618;5.130;2023-07-24T10:40:32;14.63;;;9.23;;
48727;SDS011;34527;45.618;5.130;2023-07-24T10:43:04;9.68;;;7.47;;
48727;SDS011;34527;45.618;5.130;2023-07-24T10:45:53;12.43;;;8.07;;
48727;SDS011;34527;45.618;5.130;2023-07-24T10:48:21;11.07;;;7.85;;
48727;SDS011;34527;45.618;5.130;2023-07-24T10:50:50;13.48;;;8.18;;
48727;SDS011;34527;45.618;5.130;2023-07-24T10:53:17;12.63;;;7.72;;
48727;SDS011;34527;45.618;5.130;2023-07-24T10:55:44;11.25;;;7.15;;
48727;SDS011;34527;45.618;5.130;2023-07-24T10:58:15;11.43;;;7.53;;
48727;SDS011;34527;45.618;5.130;2023-07-24T11:00:41;10.73;;;6.70;;
48727;SDS011;34527;45.618;5.130;2023-07-24T11:03:09;9.45;;;5.82;;
48727;SDS011;34527;45.618;5.130;2023-07-24T11:05:39;10.43;;;6.50;;
48727;SDS011;34527;45.618;5.130;2023-07-24T11:08:15;6.60;;;5.55;;
48727;SDS011;34527;45.618;5.130;2023-07-24T11:10:46;13.02;;;5.95;;
48727;SDS011;34527;45.618;5.130;2023-07-24T11:13:16;11.18;;;5.35;;
48727;SDS011;34527;45.618;5.130;2023-07-24T11:15:43;7.53;;;5.80;;
48727;SDS011;34527;45.618;5.130;2023-07-24T11:18:09;6.68;;;5.45;;
48727;SDS011;34527;45.618;5.130;2023-07-24T11:20:54;9.50;;;5.78;;
48727;SDS011;34527;45.618;5.130;2023-07-24T11:23:21;12.75;;;6.18;;
48727;SDS011;34527;45.618;5.130;2023-07-24T11:25:49;8.60;;;6.03;;
48727;SDS011;34527;45.618;5.130;2023-07-24T11:28:16;8.02;;;5.55;;
48727;SDS011;34527;45.618;5.130;2023-07-24T11:30:42;9.10;;;5.88;;
48727;SDS011;34527;45.618;5.130;2023-07-24T11:33:09;8.23;;;5.88;;
48727;SDS011;34527;45.618;5.130;2023-07-24T11:35:39;10.68;;;6.65;;
48727;SDS011;34527;45.618;5.130;2023-07-24T11:38:06;10.52;;;6.05;;
48727;SDS011;34527;45.618;5.130;2023-07-24T11:40:38;12.05;;;6.25;;
48727;SDS011;34527;45.618;5.130;2023-07-24T11:43:14;11.55;;;6.45;;
48727;SDS011;34527;45.618;5.130;2023-07-24T11:45:44;9.80;;;6.68;;
48727;SDS011;34527;45.618;5.130;2023-07-24T11:48:12;10.95;;;7.18;;
48727;SDS011;34527;45.618;5.130;2023-07-24T11:50:51;10.23;;;6.72;;
48727;SDS011;34527;45.618;5.130;2023-07-24T11:53:26;7.78;;;6.30;;
48727;SDS011;34527;45.618;5.130;2023-07-24T11:55:53;9.25;;;6.40;;
48727;SDS011;34527;45.618;5.130;2023-07-24T11:58:20;10.27;;;6.80;;
48727;SDS011;34527;45.618;5.130;2023-07-24T12:00:47;17.00;;;7.75;;
48727;SDS011;34527;45.618;5.130;2023-07-24T12:03:20;10.43;;;7.15;;
48727;SDS011;34527;45.618;5.130;2023-07-24T12:05:46;14.40;;;8.25;;
48727;SDS011;34527;45.618;5.130;2023-07-24T12:08:12;11.90;;;7.47;;
48727;SDS011;34527;45.618;5.130;2023-07-24T12:10:39;12.25;;;7.70;;
48727;SDS011;34527;45.618;5.130;2023-07-24T12:13:05;10.18;;;7.78;;
48727;SDS011;34527;45.618;5.130;2023-07-24T12:15:32;9.20;;;7.38;;
48727;SDS011;34527;45.618;5.130;2023-07-24T12:18:00;13.23;;;7.82;;
48727;SDS011;34527;45.618;5.130;2023-07-24T12:20:29;12.32;;;7.85;;
48727;SDS011;34527;45.618;5.130;2023-07-24T12:22:55;14.93;;;8.07;;
48727;SDS011;34527;45.618;5.130;2023-07-24T12:25:21;12.10;;;7.38;;
48727;SDS011;34527;45.618;5.130;2023-07-24T12:27:47;10.27;;;7.13;;
48727;SDS011;34527;45.618;5.130;2023-07-24T12:30:13;14.77;;;8.18;;
48727;SDS011;34527;45.618;5.130;2023-07-24T12:32:38;12.05;;;7.50;;
48727;SDS011;34527;45.618;5.130;2023-07-24T12:35:04;10.23;;;7.45;;
48727;SDS011;34527;45.618;5.130;2023-07-24T12:37:30;12.13;;;6.95;;
48727;SDS011;34527;45.618;5.130;2023-07-24T12:39:56;13.65;;;7.88;;
48727;SDS011;34527;45.618;5.130;2023-07-24T12:42:22;10.25;;;7.32;;
48727;SDS011;34527;45.618;5.130;2023-07-24T12:44:48;11.18;;;7.68;;
48727;SDS011;34527;45.618;5.130;2023-07-24T12:47:14;11.88;;;8.00;;
48727;SDS011;34527;45.618;5.130;2023-07-24T12:49:40;9.55;;;7.47;;
48727;SDS011;34527;45.618;5.130;2023-07-24T12:52:05;10.90;;;8.05;;
48727;SDS011;34527;45.618;5.130;2023-07-24T12:54:32;13.43;;;8.82;;
48727;SDS011;34527;45.618;5.130;2023-07-24T12:56:58;16.67;;;9.35;;
48727;SDS011;34527;45.618;5.130;2023-07-24T12:59:24;19.95;;;9.55;;
48727;SDS011;34527;45.618;5.130;2023-07-24T13:01:49;16.55;;;9.93;;
48727;SDS011;34527;45.618;5.130;2023-07-24T13:04:15;15.75;;;9.73;;
48727;SDS011;34527;45.618;5.130;2023-07-24T13:06:40;19.15;;;10.20;;
48727;SDS011;34527;45.618;5.130;2023-07-24T13:09:07;15.48;;;10.73;;
48727;SDS011;34527;45.618;5.130;2023-07-24T13:11:32;14.20;;;10.45;;
48727;SDS011;34527;45.618;5.130;2023-07-24T13:13:58;16.52;;;9.63;;
48727;SDS011;34527;45.618;5.130;2023-07-24T13:16:24;13.35;;;9.18;;
48727;SDS011;34527;45.618;5.130;2023-07-24T13:18:49;11.90;;;8.80;;
48727;SDS011;34527;45.618;5.130;2023-07-24T13:21:15;12.73;;;8.00;;
48727;SDS011;34527;45.618;5.130;2023-07-24T13:23:41;13.20;;;8.25;;
48727;SDS011;34527;45.618;5.130;2023-07-24T13:26:06;12.65;;;8.32;;
48727;SDS011;34527;45.618;5.130;2023-07-24T13:28:39;12.73;;;8.43;;
48727;SDS011;34527;45.618;5.130;2023-07-24T13:31:15;11.15;;;7.85;;
48727;SDS011;34527;45.618;5.130;2023-07-24T13:33:42;10.48;;;6.97;;
48727;SDS011;34527;45.618;5.130;2023-07-24T13:36:07;10.25;;;6.97;;
48727;SDS011;34527;45.618;5.130;2023-07-24T13:38:33;10.32;;;7.20;;
48727;SDS011;34527;45.618;5.130;2023-07-24T13:40:59;9.70;;;7.43;;
48727;SDS011;34527;45.618;5.130;2023-07-24T13:43:25;8.10;;;6.95;;
48727;SDS011;34527;45.618;5.130;2023-07-24T13:45:51;11.50;;;7.15;;
48727;SDS011;34527;45.618;5.130;2023-07-24T13:48:18;9.57;;;6.95;;
48727;SDS011;34527;45.618;5.130;2023-07-24T13:50:44;10.93;;;6.65;;
48727;SDS011;34527;45.618;5.130;2023-07-24T13:53:09;11.13;;;7.43;;
48727;SDS011;34527;45.618;5.130;2023-07-24T13:55:35;10.48;;;6.25;;
48727;SDS011;34527;45.618;5.130;2023-07-24T13:58:01;8.65;;;6.43;;
48727;SDS011;34527;45.618;5.130;2023-07-24T14:00:26;10.23;;;7.05;;
48727;SDS011;34527;45.618;5.130;2023-07-24T14:02:52;7.90;;;6.35;;
48727;SDS011;34527;45.618;5.130;2023-07-24T14:05:17;10.07;;;6.65;;
48727;SDS011;34527;45.618;5.130;2023-07-24T14:07:43;10.77;;;6.93;;
48727;SDS011;34527;45.618;5.130;2023-07-24T14:10:09;11.30;;;7.18;;
48727;SDS011;34527;45.618;5.130;2023-07-24T14:12:35;10.73;;;7.45;;
48727;SDS011;34527;45.618;5.130;2023-07-24T14:15:01;9.63;;;6.50;;
48727;SDS011;34527;45.618;5.130;2023-07-24T14:17:27;10.77;;;6.75;;
48727;SDS011;34527;45.618;5.130;2023-07-24T14:19:53;9.35;;;6.85;;
48727;SDS011;34527;45.618;5.130;2023-07-24T14:22:19;8.88;;;6.15;;
48727;SDS011;34527;45.618;5.130;2023-07-24T14:24:44;9.35;;;6.50;;
48727;SDS011;34527;45.618;5.130;2023-07-24T14:27:11;9.23;;;6.18;;
48727;SDS011;34527;45.618;5.130;2023-07-24T14:29:37;9.30;;;6.22;;
48727;SDS011;34527;45.618;5.130;2023-07-24T14:32:03;7.45;;;5.32;;
48727;SDS011;34527;45.618;5.130;2023-07-24T14:34:29;8.05;;;6.05;;
48727;SDS011;34527;45.618;5.130;2023-07-24T14:36:55;6.75;;;5.43;;
48727;SDS011;34527;45.618;5.130;2023-07-24T14:39:21;6.40;;;5.45;;